createdAt,value
2018-09-01T00:02:19.997Z,14.30
2018-09-01T00:05:31.598Z,14.30
2018-09-01T00:08:42.661Z,14.10
2018-09-01T00:11:53.666Z,14.00
2018-09-01T00:15:04.806Z,13.90
2018-09-01T00:18:16.063Z,13.80
2018-09-01T00:21:27.331Z,13.80
2018-09-01T00:24:39.487Z,13.80
2018-09-01T00:27:51.240Z,13.80
2018-09-01T00:31:03.105Z,13.80
2018-09-01T00:34:14.286Z,13.70
2018-09-01T00:37:30.599Z,13.50
2018-09-01T00:40:42.353Z,13.40
2018-09-01T00:43:53.596Z,13.30
2018-09-01T00:47:04.741Z,13.30
2018-09-01T00:50:15.820Z,13.40
2018-09-01T00:53:26.948Z,13.30
2018-09-01T00:56:38.194Z,13.30
2018-09-01T00:59:50.096Z,13.20
2018-09-01T01:03:01.986Z,13.00
2018-09-01T01:06:13.131Z,13.00
2018-09-01T01:09:24.232Z,12.80
2018-09-01T01:12:36.216Z,12.80
2018-09-01T01:15:47.333Z,12.80
2018-09-01T01:18:59.009Z,12.60
2018-09-01T01:22:10.138Z,12.60
2018-09-01T01:25:21.973Z,12.50
2018-09-01T01:28:33.729Z,12.60
2018-09-01T01:31:45.647Z,12.50
2018-09-01T01:34:57.815Z,12.40
2018-09-01T01:38:09.774Z,12.30
2018-09-01T01:41:21.464Z,12.30
2018-09-01T01:44:32.901Z,12.30
2018-09-01T01:47:44.731Z,12.10
2018-09-01T01:50:55.924Z,12.20
2018-09-01T01:54:07.893Z,12.30
2018-09-01T01:57:19.107Z,12.30
2018-09-01T02:00:30.229Z,12.20
2018-09-01T02:03:41.605Z,12.30
2018-09-01T02:06:52.812Z,12.20
2018-09-01T02:10:05.075Z,12.10
2018-09-01T02:13:16.866Z,12.10
2018-09-01T02:16:27.950Z,12.10
2018-09-01T02:19:39.267Z,12.10
2018-09-01T02:22:50.635Z,12.10
2018-09-01T02:26:02.135Z,12.00
2018-09-01T02:29:13.582Z,12.00
2018-09-01T02:32:25.213Z,11.90
2018-09-01T02:35:36.521Z,11.90
2018-09-01T02:38:48.084Z,11.90
2018-09-01T02:41:59.066Z,12.00
2018-09-01T02:45:11.574Z,12.00
2018-09-01T02:48:23.139Z,11.90
2018-09-01T02:51:35.107Z,11.70
2018-09-01T02:54:46.393Z,11.70
2018-09-01T02:57:57.937Z,11.70
2018-09-01T03:01:14.892Z,11.70
2018-09-01T03:04:26.263Z,11.80
2018-09-01T03:07:37.844Z,11.70
2018-09-01T03:10:48.843Z,11.60
2018-09-01T03:14:00.208Z,11.60
2018-09-01T03:17:12.159Z,11.50
2018-09-01T03:20:24.591Z,11.60
2018-09-01T03:23:36.277Z,11.70
2018-09-01T03:26:47.667Z,11.60
2018-09-01T03:29:59.549Z,11.60
2018-09-01T03:33:10.577Z,11.50
2018-09-01T03:36:21.874Z,11.40
2018-09-01T03:39:33.077Z,11.40
2018-09-01T03:42:44.287Z,11.30
2018-09-01T03:45:55.416Z,11.10
2018-09-01T03:49:08.759Z,11.00
2018-09-01T03:52:20.645Z,11.00
2018-09-01T03:55:31.895Z,11.00
2018-09-01T03:58:43.196Z,10.90
2018-09-01T04:01:54.360Z,11.00
2018-09-01T04:05:07.843Z,11.00
2018-09-01T04:08:19.249Z,11.00
2018-09-01T04:11:30.554Z,11.00
2018-09-01T04:14:41.685Z,11.10
2018-09-01T04:17:52.781Z,11.00
2018-09-01T04:21:04.018Z,10.80
2018-09-01T04:24:15.253Z,10.80
2018-09-01T04:27:26.753Z,10.80
2018-09-01T04:30:38.556Z,10.80
2018-09-01T04:33:49.810Z,10.80
2018-09-01T04:37:00.850Z,10.80
2018-09-01T04:40:11.976Z,10.90
2018-09-01T04:43:23.395Z,10.80
2018-09-01T04:46:34.458Z,10.70
2018-09-01T04:49:45.486Z,10.80
2018-09-01T04:52:56.963Z,10.80
2018-09-01T04:56:08.555Z,10.70
2018-09-01T04:59:19.800Z,10.60
2018-09-01T05:02:32.309Z,10.80
2018-09-01T05:05:43.606Z,10.80
2018-09-01T05:08:54.658Z,10.80
2018-09-01T05:12:06.724Z,10.90
2018-09-01T05:15:18.195Z,10.90
2018-09-01T05:18:30.623Z,11.10
2018-09-01T05:21:42.495Z,11.10
2018-09-01T05:24:53.761Z,11.10
2018-09-01T05:28:05.516Z,11.20
2018-09-01T05:31:17.055Z,11.30
2018-09-01T05:34:29.136Z,11.20
2018-09-01T05:37:41.412Z,11.10
2018-09-01T05:40:53.518Z,11.10
2018-09-01T05:44:05.111Z,11.30
2018-09-01T05:47:16.997Z,11.40
2018-09-01T05:50:28.966Z,11.40
2018-09-01T05:53:40.948Z,11.60
2018-09-01T05:56:53.201Z,11.60
2018-09-01T06:00:05.086Z,11.70
2018-09-01T06:03:17.393Z,11.80
2018-09-01T06:06:29.102Z,11.80
2018-09-01T06:09:40.675Z,11.80
2018-09-01T06:12:52.456Z,11.80
2018-09-01T06:16:03.995Z,11.90
2018-09-01T06:19:15.599Z,11.90
2018-09-01T06:22:27.110Z,11.70
2018-09-01T06:25:39.997Z,11.60
2018-09-01T06:29:21.902Z,11.60
2018-09-01T06:32:33.693Z,11.60
2018-09-01T06:35:45.731Z,11.70
2018-09-01T06:38:56.905Z,11.60
2018-09-01T06:42:08.089Z,11.70
2018-09-01T06:45:19.163Z,11.70
2018-09-01T06:48:30.364Z,11.70
2018-09-01T06:51:42.319Z,11.80
2018-09-01T06:54:55.047Z,11.90
2018-09-01T06:58:06.912Z,12.00
2018-09-01T07:01:18.570Z,11.90
2018-09-01T07:04:30.661Z,12.00
2018-09-01T07:07:42.434Z,12.00
2018-09-01T07:10:54.649Z,12.00
2018-09-01T07:14:06.990Z,12.00
2018-09-01T07:17:18.332Z,12.10
2018-09-01T07:20:29.466Z,12.10
2018-09-01T07:23:41.244Z,12.20
2018-09-01T07:26:52.452Z,12.20
2018-09-01T07:30:05.496Z,12.30
2018-09-01T07:33:17.629Z,12.30
2018-09-01T07:36:28.739Z,12.40
2018-09-01T07:39:40.021Z,12.30
2018-09-01T07:42:51.828Z,12.40
2018-09-01T07:46:03.106Z,12.40
2018-09-01T07:49:15.044Z,12.40
2018-09-01T07:52:26.503Z,12.50
2018-09-01T07:55:38.396Z,12.60
2018-09-01T07:58:49.704Z,12.70
2018-09-01T08:02:01.739Z,12.60
2018-09-01T08:05:13.769Z,12.70
2018-09-01T08:08:25.782Z,12.70
2018-09-01T08:11:38.152Z,12.80
2018-09-01T08:14:49.909Z,12.80
2018-09-01T08:18:01.991Z,12.90
2018-09-01T08:21:13.132Z,13.00
2018-09-01T08:24:24.985Z,13.00
2018-09-01T08:27:36.820Z,13.10
2018-09-01T08:30:48.656Z,13.10
2018-09-01T08:34:00.184Z,13.20
2018-09-01T08:37:12.092Z,13.20
2018-09-01T08:40:24.290Z,13.30
2018-09-01T08:43:36.135Z,13.50
2018-09-01T08:46:48.061Z,13.70
2018-09-01T08:49:59.893Z,13.60
2018-09-01T08:53:11.335Z,13.70
2018-09-01T08:56:23.414Z,13.80
2018-09-01T08:59:34.460Z,13.90
2018-09-01T09:02:45.749Z,13.90
2018-09-01T09:05:57.256Z,14.00
2018-09-01T09:09:08.850Z,14.10
2018-09-01T09:12:20.523Z,14.10
2018-09-01T09:15:32.197Z,14.20
2018-09-01T09:18:43.942Z,14.30
2018-09-01T09:21:55.741Z,14.40
2018-09-01T09:25:07.567Z,14.60
2018-09-01T09:28:19.694Z,14.70
2018-09-01T09:31:31.844Z,14.90
2018-09-01T09:34:43.356Z,14.90
2018-09-01T09:37:55.375Z,15.00
2018-09-01T09:41:07.613Z,15.00
2018-09-01T09:44:18.800Z,15.10
2018-09-01T09:47:30.500Z,15.20
2018-09-01T09:50:42.551Z,15.10
2018-09-01T09:53:53.894Z,15.10
2018-09-01T09:57:06.824Z,15.20
2018-09-01T10:00:23.988Z,15.10
2018-09-01T10:03:37.706Z,15.30
2018-09-01T10:06:49.080Z,15.40
2018-09-01T10:10:00.856Z,15.60
2018-09-01T10:13:12.142Z,15.60
2018-09-01T10:16:23.379Z,15.70
2018-09-01T10:19:34.733Z,15.50
2018-09-01T10:22:46.709Z,15.50
2018-09-01T10:25:58.207Z,15.40
2018-09-01T10:29:09.288Z,15.50
2018-09-01T10:32:21.048Z,15.60
2018-09-01T10:35:32.509Z,15.60
2018-09-01T10:38:44.873Z,15.60
2018-09-01T10:41:56.144Z,15.60
2018-09-01T10:45:07.851Z,15.60
2018-09-01T10:48:19.723Z,15.60
2018-09-01T10:51:31.524Z,15.60
2018-09-01T10:54:42.814Z,15.60
2018-09-01T10:57:54.028Z,15.60
2018-09-01T11:01:05.535Z,15.60
2018-09-01T11:04:16.931Z,15.60
2018-09-01T11:07:28.883Z,15.60
2018-09-01T11:10:40.115Z,15.60
2018-09-01T11:13:52.182Z,15.60
2018-09-01T11:17:03.689Z,15.60
2018-09-01T11:20:15.688Z,15.50
2018-09-01T11:23:27.679Z,15.50
2018-09-01T11:26:39.396Z,15.50
2018-09-01T11:29:51.149Z,15.60
2018-09-01T11:33:03.361Z,15.60
2018-09-01T11:36:15.165Z,15.60
2018-09-01T11:39:26.971Z,15.50
2018-09-01T11:42:39.626Z,15.60
2018-09-01T11:45:53.171Z,15.60
2018-09-01T11:49:05.008Z,15.60
2018-09-01T11:52:16.707Z,15.60
2018-09-01T11:55:28.131Z,15.60
2018-09-01T11:58:40.219Z,15.70
2018-09-01T12:01:51.665Z,15.70
2018-09-01T12:05:02.788Z,16.00
2018-09-01T12:08:13.992Z,16.10
2018-09-01T12:11:25.154Z,16.10
2018-09-01T12:14:36.393Z,16.10
2018-09-01T12:17:49.168Z,16.00
2018-09-01T12:21:01.146Z,15.90
2018-09-01T12:24:12.362Z,16.00
2018-09-01T12:27:23.899Z,16.00
2018-09-01T12:30:35.293Z,15.90
2018-09-01T12:33:48.032Z,16.10
2018-09-01T12:36:59.481Z,16.20
2018-09-01T12:40:10.805Z,16.20
2018-09-01T12:43:22.479Z,16.30
2018-09-01T12:46:34.080Z,16.20
2018-09-01T12:49:45.223Z,16.30
2018-09-01T12:52:57.474Z,16.30
2018-09-01T12:56:09.751Z,16.20
2018-09-01T12:59:22.061Z,16.20
2018-09-01T13:02:34.026Z,16.30
2018-09-01T13:05:45.541Z,16.30
2018-09-01T13:08:56.717Z,16.50
2018-09-01T13:12:08.900Z,16.40
2018-09-01T13:15:20.562Z,16.50
2018-09-01T13:18:32.565Z,16.40
2018-09-01T13:21:44.125Z,16.30
2018-09-01T13:24:55.683Z,16.20
2018-09-01T13:28:07.622Z,16.10
2018-09-01T13:31:18.974Z,16.10
2018-09-01T13:34:30.929Z,16.10
2018-09-01T13:37:42.953Z,16.30
2018-09-01T13:40:54.370Z,16.30
2018-09-01T13:44:06.352Z,16.50
2018-09-01T13:47:17.790Z,16.50
2018-09-01T13:50:29.863Z,16.50
2018-09-01T13:53:41.962Z,16.50
2018-09-01T13:56:53.173Z,16.50
2018-09-01T14:00:05.792Z,16.30
2018-09-01T14:03:17.311Z,16.30
2018-09-01T14:06:28.670Z,16.40
2018-09-01T14:09:40.998Z,16.40
2018-09-01T14:12:52.650Z,16.30
2018-09-01T14:16:09.323Z,16.40
2018-09-01T14:19:21.442Z,16.40
2018-09-01T14:22:33.320Z,16.40
2018-09-01T14:25:48.011Z,16.40
2018-09-01T14:28:59.311Z,16.30
2018-09-01T14:32:11.394Z,16.40
2018-09-01T14:35:22.927Z,16.40
2018-09-01T14:38:34.365Z,16.50
2018-09-01T14:41:46.015Z,16.40
2018-09-01T14:44:57.619Z,16.60
2018-09-01T14:48:09.390Z,16.70
2018-09-01T14:51:21.227Z,16.70
2018-09-01T14:54:33.351Z,16.70
2018-09-01T14:57:44.925Z,16.70
2018-09-01T15:00:56.409Z,16.70
2018-09-01T15:04:09.430Z,16.80
2018-09-01T15:07:21.313Z,16.90
2018-09-01T15:10:33.412Z,16.90
2018-09-01T15:13:46.486Z,16.90
2018-09-01T15:17:00.114Z,16.70
2018-09-01T15:20:24.371Z,16.90
2018-09-01T15:23:41.910Z,16.90
2018-09-01T15:26:57.113Z,16.90
2018-09-01T15:30:15.999Z,16.80
2018-09-01T15:33:32.868Z,16.80
2018-09-01T15:40:18.051Z,16.70
2018-09-01T15:43:32.526Z,16.70
2018-09-01T15:46:45.032Z,16.80
2018-09-01T15:49:58.276Z,16.80
2018-09-01T15:53:12.135Z,16.80
2018-09-01T15:56:25.572Z,16.80
2018-09-01T15:59:39.757Z,16.80
2018-09-01T16:02:55.376Z,16.70
2018-09-01T16:06:08.920Z,16.60
2018-09-01T16:09:21.903Z,16.40
2018-09-01T16:12:36.394Z,16.50
2018-09-01T16:15:53.832Z,16.40
2018-09-01T16:19:08.632Z,16.40
2018-09-01T16:22:21.884Z,16.40
2018-09-01T16:29:09.326Z,16.30
2018-09-01T16:32:33.811Z,16.20
2018-09-01T16:35:57.774Z,16.10
2018-09-01T16:39:20.862Z,16.10
2018-09-01T16:42:36.524Z,16.10
2018-09-01T16:45:56.211Z,16.00
2018-09-01T16:49:12.555Z,16.00
2018-09-01T16:52:28.549Z,15.90
2018-09-01T16:55:49.818Z,15.90
2018-09-01T16:59:04.851Z,15.90
2018-09-01T17:02:19.724Z,15.90
2018-09-01T17:05:33.071Z,15.90
2018-09-01T17:08:45.788Z,15.90
2018-09-01T17:12:02.252Z,15.80
2018-09-01T17:15:15.184Z,15.80
2018-09-01T17:18:28.414Z,15.80
2018-09-01T17:21:42.591Z,15.80
2018-09-01T17:24:56.122Z,15.80
2018-09-01T17:28:09.335Z,15.80
2018-09-01T17:31:22.053Z,15.90
2018-09-01T17:34:33.797Z,15.80
2018-09-01T17:37:45.547Z,15.90
2018-09-01T17:40:57.087Z,15.80
2018-09-01T17:44:09.022Z,15.80
2018-09-01T17:47:21.108Z,15.80
2018-09-01T17:50:33.206Z,15.80
2018-09-01T17:53:45.255Z,15.80
2018-09-01T17:56:56.692Z,15.80
2018-09-01T18:00:08.896Z,15.80
2018-09-01T18:03:20.854Z,15.80
2018-09-01T18:06:32.327Z,15.60
2018-09-01T18:09:44.546Z,15.70
2018-09-01T18:12:56.321Z,15.70
2018-09-01T18:16:08.739Z,15.60
2018-09-01T18:19:19.925Z,15.60
2018-09-01T18:22:31.992Z,15.60
2018-09-01T18:25:44.124Z,15.60
2018-09-01T18:28:56.382Z,15.60
2018-09-01T18:32:08.613Z,15.60
2018-09-01T18:35:19.968Z,15.60
2018-09-01T18:38:31.767Z,15.70
2018-09-01T18:41:43.480Z,15.70
2018-09-01T18:44:55.928Z,15.60
2018-09-01T18:48:07.983Z,15.60
2018-09-01T18:51:20.295Z,15.60
2018-09-01T18:54:31.569Z,15.50
2018-09-01T18:57:42.781Z,15.50
2018-09-01T19:00:54.209Z,15.50
2018-09-01T19:04:05.741Z,15.30
2018-09-01T19:07:17.950Z,15.30
2018-09-01T19:10:29.844Z,15.30
2018-09-01T19:13:42.668Z,15.30
2018-09-01T19:16:56.751Z,15.30
2018-09-01T19:20:09.637Z,15.30
2018-09-01T19:23:22.297Z,15.30
2018-09-01T19:26:35.029Z,15.20
2018-09-01T19:29:48.453Z,15.30
2018-09-01T19:33:00.979Z,15.30
2018-09-01T19:36:13.170Z,15.20
2018-09-01T19:39:24.557Z,15.20
2018-09-01T19:42:36.110Z,15.10
2018-09-01T19:45:47.702Z,15.10
2018-09-01T19:48:59.882Z,15.00
2018-09-01T19:52:11.852Z,15.10
2018-09-01T19:55:23.767Z,15.00
2018-09-01T19:58:34.965Z,15.00
2018-09-01T20:01:46.976Z,14.90
2018-09-01T20:04:59.024Z,14.90
2018-09-01T20:08:10.241Z,15.00
2018-09-01T20:11:21.618Z,14.90
2018-09-01T20:14:33.258Z,15.00
2018-09-01T20:17:45.316Z,14.90
2018-09-01T20:20:56.467Z,14.90
2018-09-01T20:24:07.973Z,14.90
2018-09-01T20:27:19.573Z,14.80
2018-09-01T20:30:31.275Z,14.80
2018-09-01T20:33:42.707Z,14.70
2018-09-01T20:36:54.669Z,14.70
2018-09-01T20:40:07.325Z,14.70
2018-09-01T20:43:19.147Z,14.60
2018-09-01T20:46:31.096Z,14.60
2018-09-01T20:49:42.273Z,14.60
2018-09-01T20:52:53.279Z,14.60
2018-09-01T20:56:04.611Z,14.50
2018-09-01T20:59:16.290Z,14.50
2018-09-01T21:02:27.632Z,14.60
2018-09-01T21:05:38.905Z,14.60
2018-09-01T21:08:50.331Z,14.60
2018-09-01T21:12:02.347Z,14.50
2018-09-01T21:15:13.646Z,14.50
2018-09-01T21:18:25.406Z,14.50
2018-09-01T21:21:37.606Z,14.50
2018-09-01T21:24:49.759Z,14.60
2018-09-01T21:28:01.436Z,14.50
2018-09-01T21:31:12.619Z,14.50
2018-09-01T21:34:23.740Z,14.50
2018-09-01T21:37:35.904Z,14.50
2018-09-01T21:40:47.806Z,14.50
2018-09-01T21:43:59.346Z,14.50
2018-09-01T21:47:12.301Z,14.50
2018-09-01T21:50:23.428Z,14.50
2018-09-01T21:53:35.174Z,14.50
2018-09-01T21:56:47.032Z,14.40
2018-09-01T21:59:59.378Z,14.40
2018-09-01T22:03:11.555Z,14.40
2018-09-01T22:06:23.732Z,14.50
2018-09-01T22:09:35.899Z,14.50
2018-09-01T22:12:47.267Z,14.40
2018-09-01T22:15:59.297Z,14.40
2018-09-01T22:19:11.216Z,14.40
2018-09-01T22:22:22.637Z,14.40
2018-09-01T22:25:34.304Z,14.40
2018-09-01T22:28:46.188Z,14.40
2018-09-01T22:31:57.524Z,14.40
2018-09-01T22:35:09.150Z,14.40
2018-09-01T22:38:20.826Z,14.40
2018-09-01T22:41:32.824Z,14.50
2018-09-01T22:44:44.828Z,14.50
2018-09-01T22:47:56.512Z,14.50
2018-09-01T22:51:08.746Z,14.50
2018-09-01T22:54:20.731Z,14.50
2018-09-01T22:57:32.154Z,14.50
2018-09-01T23:00:43.358Z,14.50
2018-09-01T23:03:55.306Z,14.50
2018-09-01T23:07:07.104Z,14.50
2018-09-01T23:10:19.309Z,14.40
2018-09-01T23:13:31.064Z,14.50
2018-09-01T23:16:42.205Z,14.40
2018-09-01T23:19:53.827Z,14.40
2018-09-01T23:23:06.424Z,14.40
2018-09-01T23:26:18.277Z,14.50
2018-09-01T23:29:29.553Z,14.50
2018-09-01T23:32:41.546Z,14.40
2018-09-01T23:35:52.576Z,14.40
2018-09-01T23:39:04.459Z,14.40
2018-09-01T23:42:15.799Z,14.40
2018-09-01T23:45:28.372Z,14.50
2018-09-01T23:48:39.594Z,14.30
2018-09-01T23:51:50.997Z,14.30
2018-09-01T23:55:02.495Z,14.30
2018-09-01T23:58:13.507Z,14.30
